Terminal Aerodrome Forecast
Issued by NWS

Home | Current Version | Previous Version | Text Only | Print | Product List | Glossary On
Versions: 1 2 3 4 5 6 7 8 9 10 11 12 13 14 15 16 17 18 19 20 21 22 23 24 25 26 27 28 29 30 31 32 33
800
FTUS45 KSLC 070050 AAA
TAFSGU
TAF AMD
KSGU 070050Z 0701/0724 24010KT P6SM SCT080 BKN100
     FM070400 16008KT P6SM BKN120
     FM071900 24010G18KT P6SM SCT070 BKN120
      AMD LTD TO CLD VIS AND WIND=

USA.gov is the U.S. government's official web portal to all federal, state and local government web resources and services.